sensor_id;sensor_type;location;lat;lon;timestamp;P1;durP1;ratioP1;P2;durP2;ratioP2
63581;SDS011;49727;51.078;17.066;2023-11-21T00:13:50;6.35;;;2.47;;
63581;SDS011;49727;51.078;17.066;2023-11-21T00:28:50;5.47;;;2.70;;
63581;SDS011;49727;51.078;17.066;2023-11-21T00:43:50;6.55;;;2.28;;
63581;SDS011;49727;51.078;17.066;2023-11-21T00:58:51;5.82;;;2.60;;
63581;SDS011;49727;51.078;17.066;2023-11-21T01:13:52;6.70;;;2.40;;
63581;SDS011;49727;51.078;17.066;2023-11-21T01:28:53;9.17;;;2.93;;
63581;SDS011;49727;51.078;17.066;2023-11-21T01:43:54;6.47;;;3.20;;
63581;SDS011;49727;51.078;17.066;2023-11-21T01:58:55;12.93;;;3.95;;
63581;SDS011;49727;51.078;17.066;2023-11-21T02:13:58;10.03;;;3.07;;
63581;SDS011;49727;51.078;17.066;2023-11-21T02:28:59;9.40;;;2.57;;
63581;SDS011;49727;51.078;17.066;2023-11-21T02:44:00;9.13;;;2.80;;
63581;SDS011;49727;51.078;17.066;2023-11-21T02:59:01;5.38;;;2.88;;
63581;SDS011;49727;51.078;17.066;2023-11-21T03:14:01;9.15;;;3.08;;
63581;SDS011;49727;51.078;17.066;2023-11-21T03:29:01;9.63;;;3.97;;
63581;SDS011;49727;51.078;17.066;2023-11-21T03:44:02;9.70;;;4.15;;
63581;SDS011;49727;51.078;17.066;2023-11-21T03:59:02;6.75;;;3.97;;
63581;SDS011;49727;51.078;17.066;2023-11-21T04:14:03;9.52;;;4.07;;
63581;SDS011;49727;51.078;17.066;2023-11-21T04:29:03;6.65;;;3.47;;
63581;SDS011;49727;51.078;17.066;2023-11-21T04:44:07;6.72;;;4.00;;
63581;SDS011;49727;51.078;17.066;2023-11-21T04:59:07;8.50;;;3.70;;
63581;SDS011;49727;51.078;17.066;2023-11-21T05:14:08;9.05;;;4.18;;
63581;SDS011;49727;51.078;17.066;2023-11-21T05:29:08;7.72;;;4.40;;
63581;SDS011;49727;51.078;17.066;2023-11-21T05:44:10;11.90;;;4.57;;
63581;SDS011;49727;51.078;17.066;2023-11-21T05:59:12;7.27;;;4.50;;
63581;SDS011;49727;51.078;17.066;2023-11-21T06:14:13;8.07;;;3.60;;
63581;SDS011;49727;51.078;17.066;2023-11-21T06:29:17;8.47;;;3.97;;
63581;SDS011;49727;51.078;17.066;2023-11-21T06:44:18;9.23;;;4.30;;
63581;SDS011;49727;51.078;17.066;2023-11-21T06:59:19;6.10;;;3.90;;
63581;SDS011;49727;51.078;17.066;2023-11-21T07:14:20;8.25;;;5.15;;
63581;SDS011;49727;51.078;17.066;2023-11-21T07:29:21;9.80;;;5.40;;
63581;SDS011;49727;51.078;17.066;2023-11-21T07:44:21;11.35;;;4.97;;
63581;SDS011;49727;51.078;17.066;2023-11-21T07:59:23;14.50;;;5.47;;
63581;SDS011;49727;51.078;17.066;2023-11-21T08:14:24;9.83;;;5.57;;
63581;SDS011;49727;51.078;17.066;2023-11-21T08:29:27;13.67;;;5.13;;
63581;SDS011;49727;51.078;17.066;2023-11-21T08:44:27;9.63;;;4.85;;
63581;SDS011;49727;51.078;17.066;2023-11-21T08:59:28;12.32;;;4.80;;
63581;SDS011;49727;51.078;17.066;2023-11-21T09:14:28;16.65;;;5.45;;
63581;SDS011;49727;51.078;17.066;2023-11-21T09:29:28;9.07;;;5.25;;
63581;SDS011;49727;51.078;17.066;2023-11-21T09:44:35;10.23;;;4.95;;
63581;SDS011;49727;51.078;17.066;2023-11-21T09:59:45;6.90;;;3.90;;
63581;SDS011;49727;51.078;17.066;2023-11-21T10:14:50;8.07;;;4.30;;
63581;SDS011;49727;51.078;17.066;2023-11-21T10:29:53;8.20;;;4.70;;
63581;SDS011;49727;51.078;17.066;2023-11-21T10:44:54;7.05;;;3.67;;
63581;SDS011;49727;51.078;17.066;2023-11-21T10:59:55;10.10;;;6.23;;
63581;SDS011;49727;51.078;17.066;2023-11-21T11:14:56;14.20;;;9.40;;
63581;SDS011;49727;51.078;17.066;2023-11-21T11:45:19;22.43;;;12.93;;
63581;SDS011;49727;51.078;17.066;2023-11-21T12:00:20;24.00;;;12.93;;
63581;SDS011;49727;51.078;17.066;2023-11-21T12:15:25;20.07;;;11.83;;
63581;SDS011;49727;51.078;17.066;2023-11-21T12:30:27;19.87;;;11.63;;
63581;SDS011;49727;51.078;17.066;2023-11-21T12:45:31;20.50;;;11.50;;
63581;SDS011;49727;51.078;17.066;2023-11-21T13:00:38;14.40;;;9.45;;
63581;SDS011;49727;51.078;17.066;2023-11-21T13:15:39;12.33;;;8.37;;
63581;SDS011;49727;51.078;17.066;2023-11-21T13:30:43;10.30;;;7.73;;
63581;SDS011;49727;51.078;17.066;2023-11-21T13:45:44;7.07;;;5.13;;
63581;SDS011;49727;51.078;17.066;2023-11-21T14:00:46;10.20;;;6.43;;
63581;SDS011;49727;51.078;17.066;2023-11-21T14:15:47;12.70;;;6.70;;
63581;SDS011;49727;51.078;17.066;2023-11-21T14:30:50;6.33;;;4.67;;
63581;SDS011;49727;51.078;17.066;2023-11-21T14:45:51;9.43;;;6.35;;
63581;SDS011;49727;51.078;17.066;2023-11-21T15:00:58;7.82;;;5.40;;
63581;SDS011;49727;51.078;17.066;2023-11-21T15:15:59;10.23;;;7.43;;
63581;SDS011;49727;51.078;17.066;2023-11-21T15:31:07;10.23;;;7.20;;
63581;SDS011;49727;51.078;17.066;2023-11-21T15:46:08;10.07;;;7.65;;
63581;SDS011;49727;51.078;17.066;2023-11-21T16:01:09;9.48;;;7.03;;
63581;SDS011;49727;51.078;17.066;2023-11-21T16:16:10;12.55;;;9.35;;
63581;SDS011;49727;51.078;17.066;2023-11-21T16:31:10;10.90;;;7.95;;
63581;SDS011;49727;51.078;17.066;2023-11-21T16:46:11;10.98;;;7.20;;
63581;SDS011;49727;51.078;17.066;2023-11-21T17:01:11;9.50;;;7.18;;
63581;SDS011;49727;51.078;17.066;2023-11-21T17:16:12;14.20;;;8.65;;
63581;SDS011;49727;51.078;17.066;2023-11-21T17:31:13;13.32;;;8.18;;
63581;SDS011;49727;51.078;17.066;2023-11-21T17:46:20;14.38;;;9.05;;
63581;SDS011;49727;51.078;17.066;2023-11-21T18:01:21;15.52;;;10.68;;
63581;SDS011;49727;51.078;17.066;2023-11-21T18:16:21;20.65;;;12.13;;
63581;SDS011;49727;51.078;17.066;2023-11-21T18:31:22;21.40;;;12.20;;
63581;SDS011;49727;51.078;17.066;2023-11-21T18:46:22;20.23;;;12.38;;
63581;SDS011;49727;51.078;17.066;2023-11-21T19:01:26;21.45;;;12.52;;
63581;SDS011;49727;51.078;17.066;2023-11-21T19:31:27;22.88;;;13.73;;
63581;SDS011;49727;51.078;17.066;2023-11-21T19:46:27;23.05;;;15.07;;
63581;SDS011;49727;51.078;17.066;2023-11-21T20:01:28;27.30;;;17.05;;
63581;SDS011;49727;51.078;17.066;2023-11-21T20:16:28;24.27;;;15.32;;
63581;SDS011;49727;51.078;17.066;2023-11-21T20:31:28;21.05;;;13.93;;
63581;SDS011;49727;51.078;17.066;2023-11-21T20:46:29;21.13;;;13.30;;
63581;SDS011;49727;51.078;17.066;2023-11-21T21:01:29;23.30;;;14.30;;
63581;SDS011;49727;51.078;17.066;2023-11-21T21:16:29;23.58;;;15.35;;
63581;SDS011;49727;51.078;17.066;2023-11-21T21:31:31;23.77;;;14.50;;
63581;SDS011;49727;51.078;17.066;2023-11-21T22:01:38;23.55;;;15.18;;
63581;SDS011;49727;51.078;17.066;2023-11-21T22:16:43;29.38;;;16.23;;
63581;SDS011;49727;51.078;17.066;2023-11-21T22:31:44;28.52;;;16.55;;
63581;SDS011;49727;51.078;17.066;2023-11-21T22:46:44;26.85;;;16.05;;
63581;SDS011;49727;51.078;17.066;2023-11-21T23:01:48;30.20;;;15.77;;
63581;SDS011;49727;51.078;17.066;2023-11-21T23:16:50;29.20;;;17.58;;
63581;SDS011;49727;51.078;17.066;2023-11-21T23:31:51;27.35;;;16.77;;
63581;SDS011;49727;51.078;17.066;2023-11-21T23:46:51;29.23;;;17.83;;
